createdAt,value
2023-02-23T00:00:57.164Z,12.21
2023-02-23T00:01:57.169Z,12.21
2023-02-23T00:02:57.252Z,12.17
2023-02-23T00:03:58.163Z,12.18
2023-02-23T00:04:57.123Z,12.18
2023-02-23T00:05:58.130Z,12.13
2023-02-23T00:06:57.122Z,12.17
2023-02-23T00:07:57.096Z,12.15
2023-02-23T00:08:57.051Z,12.06
2023-02-23T00:09:57.061Z,12.18
2023-02-23T00:10:57.079Z,12.18
2023-02-23T00:11:57.024Z,12.12
2023-02-23T00:12:57.036Z,12.12
2023-02-23T00:13:57.029Z,12.18
2023-02-23T00:14:56.996Z,12.20
2023-02-23T00:15:58.048Z,12.21
2023-02-23T00:16:57.026Z,12.21
2023-02-23T00:17:57.995Z,12.17
2023-02-23T00:18:57.015Z,12.24
2023-02-23T00:19:56.942Z,12.21
2023-02-23T00:20:57.952Z,12.21
2023-02-23T00:21:56.923Z,12.20
2023-02-23T00:22:56.968Z,12.25
2023-02-23T00:23:56.965Z,12.10
2023-02-23T00:24:57.877Z,12.13
2023-02-23T00:25:57.865Z,12.18
2023-02-23T00:26:56.867Z,12.15
2023-02-23T00:27:56.876Z,12.12
2023-02-23T00:28:56.838Z,12.22
2023-02-23T00:29:56.843Z,12.15
2023-02-23T00:30:58.479Z,12.12
2023-02-23T00:31:56.938Z,12.15
2023-02-23T00:32:56.792Z,12.17
2023-02-23T00:33:56.820Z,12.24
2023-02-23T00:34:56.795Z,12.18
2023-02-23T00:35:56.798Z,12.13
2023-02-23T00:36:56.810Z,12.21
2023-02-23T00:37:56.742Z,12.24
2023-02-23T00:38:56.900Z,12.18
2023-02-23T00:39:56.764Z,12.17
2023-02-23T00:40:56.713Z,12.27
2023-02-23T00:41:56.715Z,12.29
2023-02-23T00:42:56.721Z,12.29
2023-02-23T00:43:56.683Z,12.27
2023-02-23T00:44:56.748Z,12.29
2023-02-23T00:45:56.662Z,12.25
2023-02-23T00:46:56.656Z,12.24
2023-02-23T00:47:56.647Z,12.24
2023-02-23T00:48:57.642Z,12.15
2023-02-23T00:49:57.629Z,12.13
2023-02-23T00:50:56.613Z,12.17
2023-02-23T00:51:56.575Z,12.12
2023-02-23T00:52:56.589Z,12.15
2023-02-23T00:53:56.609Z,12.02
2023-02-23T00:54:56.620Z,12.09
2023-02-23T00:55:56.565Z,12.07
2023-02-23T00:56:56.535Z,12.12
2023-02-23T00:57:56.565Z,12.07
2023-02-23T00:58:57.510Z,11.95
2023-02-23T00:59:56.503Z,12.09
2023-02-23T01:00:56.502Z,11.97
2023-02-23T01:01:56.954Z,12.06
2023-02-23T01:02:57.472Z,12.00
2023-02-23T01:03:56.476Z,11.95
2023-02-23T01:04:56.456Z,11.97
2023-02-23T01:05:56.461Z,12.02
2023-02-23T01:06:57.456Z,11.95
2023-02-23T01:07:56.921Z,11.95
2023-02-23T01:08:56.398Z,11.97
2023-02-23T01:09:56.401Z,12.12
2023-02-23T01:10:56.386Z,12.02
2023-02-23T01:11:57.398Z,12.02
2023-02-23T01:12:56.386Z,12.02
2023-02-23T01:13:56.358Z,12.02
2023-02-23T01:14:56.334Z,12.06
2023-02-23T01:15:56.370Z,12.00
2023-02-23T01:16:56.319Z,12.00
2023-02-23T01:17:57.326Z,12.03
2023-02-23T01:18:56.306Z,12.04
2023-02-23T01:19:56.316Z,12.02
2023-02-23T01:20:56.267Z,12.12
2023-02-23T01:21:56.275Z,12.03
2023-02-23T01:22:56.236Z,12.07
2023-02-23T01:23:57.222Z,11.99
2023-02-23T01:24:56.222Z,12.06
2023-02-23T01:25:57.217Z,12.04
2023-02-23T01:26:56.211Z,12.09
2023-02-23T01:27:56.187Z,11.97
2023-02-23T01:28:57.166Z,12.00
2023-02-23T01:29:56.164Z,12.04
2023-02-23T01:30:56.287Z,12.06
2023-02-23T01:31:56.270Z,12.07
2023-02-23T01:32:57.148Z,12.03
2023-02-23T01:33:56.152Z,12.09
2023-02-23T01:34:56.127Z,11.94
2023-02-23T01:35:56.117Z,11.95
2023-02-23T01:36:56.072Z,11.95
2023-02-23T01:37:56.089Z,11.90
2023-02-23T01:38:56.063Z,11.97
2023-02-23T01:39:56.069Z,11.97
2023-02-23T01:40:56.037Z,11.94
2023-02-23T01:41:57.062Z,11.88
2023-02-23T01:42:56.012Z,11.84
2023-02-23T01:43:55.990Z,11.84
2023-02-23T01:44:57.052Z,11.88
2023-02-23T01:45:57.045Z,11.83
2023-02-23T01:46:56.020Z,11.88
2023-02-23T01:47:55.965Z,11.87
2023-02-23T01:48:55.958Z,11.84
2023-02-23T01:49:55.967Z,11.88
2023-02-23T01:50:56.968Z,11.90
2023-02-23T01:51:55.970Z,11.88
2023-02-23T01:52:55.925Z,11.86
2023-02-23T01:53:55.914Z,11.86
2023-02-23T01:54:55.902Z,11.83
2023-02-23T01:55:55.885Z,11.81
2023-02-23T01:56:56.906Z,11.86
2023-02-23T01:57:55.879Z,11.87
2023-02-23T01:58:55.823Z,11.86
2023-02-23T01:59:55.842Z,11.83
2023-02-23T02:00:55.807Z,11.78
2023-02-23T02:01:55.853Z,11.84
2023-02-23T02:02:55.829Z,11.84
2023-02-23T02:03:55.776Z,11.73
2023-02-23T02:04:55.835Z,11.78
2023-02-23T02:05:56.385Z,11.68
2023-02-23T02:06:55.743Z,11.66
2023-02-23T02:07:55.772Z,11.68
2023-02-23T02:08:55.756Z,11.66
2023-02-23T02:09:55.703Z,11.63
2023-02-23T02:10:56.729Z,11.65
2023-02-23T02:11:55.702Z,11.66
2023-02-23T02:12:55.729Z,11.65
2023-02-23T02:13:56.700Z,11.62
2023-02-23T02:14:56.674Z,11.66
2023-02-23T02:15:56.672Z,11.69
2023-02-23T02:16:55.634Z,11.69
2023-02-23T02:17:55.610Z,11.69
2023-02-23T02:18:55.618Z,11.60
2023-02-23T02:19:55.622Z,11.69
2023-02-23T02:20:56.393Z,11.68
2023-02-23T02:21:55.580Z,11.63
2023-02-23T02:22:56.563Z,11.66
2023-02-23T02:23:56.580Z,11.62
2023-02-23T02:24:55.581Z,11.65
2023-02-23T02:25:55.544Z,11.59
2023-02-23T02:26:55.581Z,11.65
2023-02-23T02:27:55.505Z,11.63
2023-02-23T02:28:55.523Z,11.68
2023-02-23T02:29:55.482Z,11.69
2023-02-23T02:30:55.522Z,11.72
2023-02-23T02:31:55.560Z,11.68
2023-02-23T02:32:56.457Z,11.66
2023-02-23T02:33:55.493Z,11.70
2023-02-23T02:34:55.453Z,11.63
2023-02-23T02:35:55.477Z,11.72
2023-02-23T02:36:55.426Z,11.73
2023-02-23T02:37:55.418Z,11.68
2023-02-23T02:38:55.389Z,11.66
2023-02-23T02:39:56.438Z,11.66
2023-02-23T02:40:55.386Z,11.65
2023-02-23T02:41:55.867Z,11.60
2023-02-23T02:42:55.362Z,11.66
2023-02-23T02:43:56.334Z,11.72
2023-02-23T02:44:55.327Z,11.69
2023-02-23T02:45:55.378Z,11.66
2023-02-23T02:46:55.358Z,11.63
2023-02-23T02:47:55.304Z,11.60
2023-02-23T02:48:56.269Z,11.57
2023-02-23T02:49:56.252Z,11.55
2023-02-23T02:50:55.268Z,11.52
2023-02-23T02:51:55.249Z,11.57
2023-02-23T02:52:55.221Z,11.52
2023-02-23T02:53:55.241Z,11.51
2023-02-23T02:54:56.218Z,11.54
2023-02-23T02:55:56.213Z,11.55
2023-02-23T02:56:55.209Z,11.50
2023-02-23T02:57:56.179Z,11.45
2023-02-23T02:58:55.160Z,11.47
2023-02-23T02:59:55.172Z,11.48
2023-02-23T03:00:55.164Z,11.45
2023-02-23T03:01:56.325Z,11.44
2023-02-23T03:02:56.140Z,11.30
2023-02-23T03:03:56.114Z,11.23
2023-02-23T03:04:55.130Z,11.22
2023-02-23T03:05:55.105Z,11.22
2023-02-23T03:06:55.104Z,11.25
2023-02-23T03:07:55.063Z,11.30
2023-02-23T03:08:56.070Z,11.41
2023-02-23T03:09:55.048Z,11.40
2023-02-23T03:10:55.056Z,11.45
2023-02-23T03:11:56.080Z,11.43
2023-02-23T03:12:55.077Z,11.43
2023-02-23T03:13:55.000Z,11.45
2023-02-23T03:14:55.007Z,11.41
2023-02-23T03:15:55.035Z,11.47
2023-02-23T03:16:54.985Z,11.57
2023-02-23T03:17:54.970Z,11.54
2023-02-23T03:18:54.959Z,11.51
2023-02-23T03:19:54.958Z,11.59
2023-02-23T03:20:55.934Z,11.55
2023-02-23T03:21:54.919Z,11.52
2023-02-23T03:22:54.909Z,11.48
2023-02-23T03:23:54.880Z,11.54
2023-02-23T03:24:54.890Z,11.54
2023-02-23T03:25:54.875Z,11.57
2023-02-23T03:26:54.845Z,11.51
2023-02-23T03:27:55.891Z,11.45
2023-02-23T03:28:54.835Z,11.45
2023-02-23T03:29:54.834Z,11.45
2023-02-23T03:30:54.844Z,11.29
2023-02-23T03:31:55.965Z,11.33
2023-02-23T03:32:54.789Z,11.26
2023-02-23T03:33:54.820Z,11.26
2023-02-23T03:34:54.792Z,11.45
2023-02-23T03:35:54.744Z,11.41
2023-02-23T03:36:54.745Z,11.40
2023-02-23T03:37:54.753Z,11.43
2023-02-23T03:38:55.725Z,11.57
2023-02-23T03:39:54.732Z,11.52
2023-02-23T03:40:54.739Z,11.55
2023-02-23T03:41:54.691Z,11.52
2023-02-23T03:42:55.667Z,11.54
2023-02-23T03:43:54.684Z,11.55
2023-02-23T03:44:54.690Z,11.63
2023-02-23T03:45:55.681Z,11.62
2023-02-23T03:46:54.654Z,11.66
2023-02-23T03:47:54.624Z,11.69
2023-02-23T03:48:54.608Z,11.73
2023-02-23T03:49:54.589Z,11.69
2023-02-23T03:50:54.607Z,11.70
2023-02-23T03:51:55.609Z,11.72
2023-02-23T03:52:54.558Z,11.80
2023-02-23T03:53:54.554Z,11.69
2023-02-23T03:54:54.548Z,11.68
2023-02-23T03:55:54.556Z,11.80
2023-02-23T03:56:54.526Z,11.86
2023-02-23T03:57:54.549Z,11.81
2023-02-23T03:58:55.500Z,11.81
2023-02-23T03:59:54.493Z,11.69
2023-02-23T04:00:54.506Z,11.86
2023-02-23T04:01:54.580Z,11.83
2023-02-23T04:02:54.472Z,11.81
2023-02-23T04:03:55.448Z,11.88
2023-02-23T04:04:54.446Z,11.88
2023-02-23T04:05:54.408Z,11.86
2023-02-23T04:06:54.441Z,11.87
2023-02-23T04:07:55.409Z,11.94
2023-02-23T04:08:54.404Z,11.87
2023-02-23T04:09:54.374Z,11.80
2023-02-23T04:10:54.373Z,11.84
2023-02-23T04:11:54.344Z,11.90
2023-02-23T04:12:55.363Z,11.86
2023-02-23T04:13:54.384Z,11.81
2023-02-23T04:14:54.342Z,11.90
2023-02-23T04:15:54.323Z,11.84
2023-02-23T04:16:54.294Z,11.95
2023-02-23T04:17:55.294Z,11.97
2023-02-23T04:18:54.261Z,11.97
2023-02-23T04:19:55.294Z,11.99
2023-02-23T04:20:54.330Z,11.97
2023-02-23T04:21:54.242Z,11.94
2023-02-23T04:22:55.255Z,12.09
2023-02-23T04:23:54.268Z,11.91
2023-02-23T04:24:54.197Z,12.02
2023-02-23T04:25:54.208Z,11.97
2023-02-23T04:26:54.204Z,11.97
2023-02-23T04:27:54.171Z,11.97
2023-02-23T04:28:54.181Z,11.99
2023-02-23T04:29:55.260Z,11.97
2023-02-23T04:30:55.212Z,11.97
2023-02-23T04:31:55.256Z,12.06
2023-02-23T04:32:54.152Z,12.09
2023-02-23T04:33:54.095Z,11.99
2023-02-23T04:34:54.098Z,12.00
2023-02-23T04:35:55.113Z,12.02
2023-02-23T04:36:54.084Z,11.91
2023-02-23T04:37:54.081Z,12.02
2023-02-23T04:38:54.052Z,12.09
2023-02-23T04:39:54.038Z,12.06
2023-02-23T04:40:54.060Z,11.95
2023-02-23T04:41:55.047Z,12.04
2023-02-23T04:42:54.041Z,11.94
2023-02-23T04:43:54.008Z,12.02
2023-02-23T04:44:55.001Z,12.09
2023-02-23T04:45:54.027Z,12.04
2023-02-23T04:46:53.962Z,12.07
2023-02-23T04:47:53.972Z,12.04
2023-02-23T04:48:53.971Z,11.99
2023-02-23T04:49:53.955Z,12.04
2023-02-23T04:50:53.945Z,11.97
2023-02-23T04:51:53.914Z,12.04
2023-02-23T04:52:53.907Z,12.06
2023-02-23T04:53:53.897Z,12.02
2023-02-23T04:54:53.898Z,12.07
2023-02-23T04:55:53.853Z,12.12
2023-02-23T04:56:54.889Z,12.12
2023-02-23T04:57:53.843Z,12.15
2023-02-23T04:58:53.833Z,12.13
2023-02-23T04:59:53.817Z,12.13
2023-02-23T05:00:53.833Z,12.10
2023-02-23T05:01:53.840Z,12.12
2023-02-23T05:02:53.813Z,12.17
2023-02-23T05:03:53.793Z,12.09
2023-02-23T05:04:53.773Z,12.09
2023-02-23T05:05:53.758Z,12.12
2023-02-23T05:06:53.752Z,12.12
2023-02-23T05:07:53.785Z,12.20
2023-02-23T05:08:53.725Z,12.09
2023-02-23T05:09:53.697Z,12.15
2023-02-23T05:10:54.720Z,12.12
2023-02-23T05:11:53.693Z,12.09
2023-02-23T05:12:53.697Z,12.20
2023-02-23T05:13:53.711Z,12.20
2023-02-23T05:14:53.650Z,12.15
2023-02-23T05:15:54.685Z,12.15
2023-02-23T05:16:53.639Z,12.17
2023-02-23T05:17:53.627Z,12.17
2023-02-23T05:18:53.621Z,12.13
2023-02-23T05:19:53.717Z,12.13
2023-02-23T05:20:53.593Z,12.09
2023-02-23T05:21:53.587Z,12.21
2023-02-23T05:22:53.553Z,12.12
2023-02-23T05:23:53.553Z,12.12
2023-02-23T05:24:57.314Z,12.10
2023-02-23T05:25:53.534Z,12.12
2023-02-23T05:26:53.526Z,12.20
2023-02-23T05:27:53.507Z,12.22
2023-02-23T05:28:53.501Z,12.25
2023-02-23T05:29:53.501Z,12.17
2023-02-23T05:30:53.755Z,12.12
2023-02-23T05:31:54.659Z,12.02
2023-02-23T05:32:54.441Z,12.09
2023-02-23T05:33:54.471Z,12.02
2023-02-23T05:34:54.414Z,11.94
2023-02-23T05:35:53.456Z,12.03
2023-02-23T05:36:53.398Z,12.04
2023-02-23T05:37:53.417Z,11.95
2023-02-23T05:38:53.384Z,12.09
2023-02-23T05:39:54.376Z,11.97
2023-02-23T05:40:53.360Z,11.99
2023-02-23T05:41:53.381Z,12.02
2023-02-23T05:42:53.344Z,12.09
2023-02-23T05:43:53.327Z,12.10
2023-02-23T05:44:54.308Z,12.10
2023-02-23T05:45:53.348Z,12.10
2023-02-23T05:46:53.303Z,12.09
2023-02-23T05:47:54.337Z,12.00
2023-02-23T05:48:54.267Z,12.07
2023-02-23T05:49:53.260Z,12.10
2023-02-23T05:50:53.249Z,12.02
2023-02-23T05:51:54.247Z,12.07
2023-02-23T05:52:53.239Z,12.09
2023-02-23T05:53:53.215Z,12.09
2023-02-23T05:54:54.224Z,12.09
2023-02-23T05:55:53.194Z,12.15
2023-02-23T05:56:53.171Z,12.09
2023-02-23T05:57:53.173Z,12.13
2023-02-23T05:58:53.187Z,12.06
2023-02-23T05:59:53.134Z,12.03
2023-02-23T06:00:53.182Z,11.97
2023-02-23T06:01:53.147Z,12.02
2023-02-23T06:02:53.218Z,12.10
2023-02-23T06:03:53.266Z,11.99
2023-02-23T06:04:53.109Z,12.00
2023-02-23T06:05:53.070Z,11.86
2023-02-23T06:06:53.113Z,12.03
2023-02-23T06:07:53.100Z,12.07
2023-02-23T06:08:53.107Z,12.00
2023-02-23T06:09:54.023Z,12.03
2023-02-23T06:10:54.024Z,11.97
2023-02-23T06:11:53.013Z,12.00
2023-02-23T06:12:53.010Z,11.95
2023-02-23T06:13:53.011Z,11.99
2023-02-23T06:14:52.984Z,11.90
2023-02-23T06:15:53.060Z,11.99
2023-02-23T06:16:53.029Z,11.88
2023-02-23T06:17:52.967Z,11.94
2023-02-23T06:18:52.976Z,11.94
2023-02-23T06:19:52.914Z,11.99
2023-02-23T06:20:53.959Z,11.97
2023-02-23T06:21:52.914Z,12.00
2023-02-23T06:22:52.933Z,11.95
2023-02-23T06:23:53.013Z,11.99
2023-02-23T06:24:52.879Z,11.91
2023-02-23T06:25:52.859Z,11.88
2023-02-23T06:26:52.859Z,11.95
2023-02-23T06:27:52.843Z,11.97
2023-02-23T06:28:52.827Z,12.00
2023-02-23T06:29:52.842Z,12.00
2023-02-23T06:30:53.909Z,12.03
2023-02-23T06:31:53.920Z,12.03
2023-02-23T06:32:52.793Z,12.09
2023-02-23T06:33:52.766Z,11.97
2023-02-23T06:34:52.751Z,12.00
2023-02-23T06:35:52.864Z,12.07
2023-02-23T06:36:52.737Z,12.00
2023-02-23T06:37:52.714Z,12.09
2023-02-23T06:38:52.723Z,12.03
2023-02-23T06:39:52.714Z,11.99
2023-02-23T06:40:52.747Z,12.03
2023-02-23T06:42:00.328Z,12.24
2023-02-23T06:42:52.669Z,12.24
2023-02-23T06:43:52.665Z,12.15
2023-02-23T06:44:52.649Z,12.09
2023-02-23T06:45:52.641Z,12.17
2023-02-23T06:46:52.692Z,12.20
2023-02-23T06:47:53.614Z,12.13
2023-02-23T06:48:52.606Z,12.17
2023-02-23T06:49:52.614Z,12.15
2023-02-23T06:50:52.708Z,12.20
2023-02-23T06:51:52.562Z,12.21
2023-02-23T06:52:52.549Z,12.18
2023-02-23T06:53:52.556Z,12.22
2023-02-23T06:54:52.531Z,12.10
2023-02-23T06:55:52.570Z,12.15
2023-02-23T06:56:52.533Z,12.13
2023-02-23T06:57:52.497Z,12.15
2023-02-23T06:58:52.506Z,12.12
2023-02-23T06:59:52.476Z,12.09
2023-02-23T07:00:52.477Z,12.10
2023-02-23T07:01:52.477Z,12.17
2023-02-23T07:02:52.436Z,12.09
2023-02-23T07:03:53.530Z,12.15
2023-02-23T07:04:52.426Z,12.12
2023-02-23T07:05:52.432Z,12.15
2023-02-23T07:06:52.395Z,12.10
2023-02-23T07:07:52.446Z,12.12
2023-02-23T07:08:52.396Z,12.07
2023-02-23T07:09:52.364Z,12.20
2023-02-23T07:10:52.360Z,12.17
2023-02-23T07:11:52.409Z,12.27
2023-02-23T07:12:52.344Z,12.21
2023-02-23T07:13:52.338Z,12.32
2023-02-23T07:14:52.335Z,12.35
2023-02-23T07:15:52.336Z,12.36
2023-02-23T07:16:52.304Z,12.32
2023-02-23T07:17:52.371Z,12.31
2023-02-23T07:18:52.279Z,12.43
2023-02-23T07:19:52.270Z,12.37
2023-02-23T07:20:52.296Z,12.37
2023-02-23T07:21:52.233Z,12.45
2023-02-23T07:22:52.263Z,12.40
2023-02-23T07:23:52.247Z,12.50
2023-02-23T07:24:52.216Z,12.50
2023-02-23T07:25:53.178Z,12.45
2023-02-23T07:26:53.240Z,12.40
2023-02-23T07:27:52.195Z,12.57
2023-02-23T07:28:54.140Z,12.67
2023-02-23T07:29:52.166Z,12.50
2023-02-23T07:30:52.272Z,12.40
2023-02-23T07:31:53.232Z,12.40
2023-02-23T07:32:52.772Z,12.55
2023-02-23T07:33:52.170Z,12.46
2023-02-23T07:34:53.983Z,12.55
2023-02-23T07:35:52.072Z,12.54
2023-02-23T07:36:53.128Z,12.60
2023-02-23T07:37:52.076Z,12.60
2023-02-23T07:38:53.165Z,12.54
2023-02-23T07:39:52.072Z,12.64
2023-02-23T07:40:53.042Z,12.57
2023-02-23T07:41:52.036Z,12.60
2023-02-23T07:42:52.041Z,12.54
2023-02-23T07:43:53.077Z,12.54
2023-02-23T07:44:52.095Z,12.54
2023-02-23T07:45:52.079Z,12.42
2023-02-23T07:46:51.996Z,12.57
2023-02-23T07:47:51.984Z,12.53
2023-02-23T07:48:51.948Z,12.54
2023-02-23T07:49:51.931Z,12.62
2023-02-23T07:50:51.911Z,12.61
2023-02-23T07:51:51.922Z,12.64
2023-02-23T07:52:51.929Z,12.62
2023-02-23T07:53:51.906Z,12.65
2023-02-23T07:54:51.905Z,12.65
2023-02-23T07:55:51.861Z,12.70
2023-02-23T07:56:51.850Z,12.73
2023-02-23T07:57:51.878Z,12.62
2023-02-23T07:58:51.836Z,12.65
2023-02-23T07:59:51.861Z,12.70
2023-02-23T08:00:51.888Z,12.67
2023-02-23T08:01:51.839Z,12.67
2023-02-23T08:02:51.789Z,12.75
2023-02-23T08:03:52.817Z,12.76
2023-02-23T08:04:51.772Z,12.91
2023-02-23T08:05:51.776Z,12.83
2023-02-23T08:06:51.743Z,12.87
2023-02-23T08:07:51.817Z,12.87
2023-02-23T08:08:51.741Z,12.90
2023-02-23T08:09:52.728Z,12.98
2023-02-23T08:10:52.734Z,13.05
2023-02-23T08:11:51.711Z,13.09
2023-02-23T08:12:52.759Z,13.08
2023-02-23T08:13:51.716Z,13.11
2023-02-23T08:14:51.667Z,13.04
2023-02-23T08:15:51.776Z,13.08
2023-02-23T08:16:51.889Z,13.12
2023-02-23T08:17:51.656Z,13.05
2023-02-23T08:18:51.664Z,13.15
2023-02-23T08:19:51.657Z,13.15
2023-02-23T08:20:51.603Z,13.16
2023-02-23T08:21:51.615Z,13.25
2023-02-23T08:22:51.578Z,13.25
2023-02-23T08:23:51.595Z,13.23
2023-02-23T08:24:51.736Z,13.25
2023-02-23T08:25:51.806Z,13.31
2023-02-23T08:26:51.537Z,13.35
2023-02-23T08:27:51.503Z,13.33
2023-02-23T08:28:52.511Z,13.31
2023-02-23T08:29:51.527Z,13.33
2023-02-23T08:30:51.694Z,13.42
2023-02-23T08:31:51.673Z,13.39
2023-02-23T08:32:51.624Z,13.44
2023-02-23T08:33:51.474Z,13.44
2023-02-23T08:34:51.475Z,13.52
2023-02-23T08:35:51.407Z,13.56
2023-02-23T08:36:51.480Z,13.63
2023-02-23T08:37:52.405Z,13.56
2023-02-23T08:38:51.396Z,13.60
2023-02-23T08:39:51.410Z,13.63
2023-02-23T08:40:51.374Z,13.65
2023-02-23T08:41:51.421Z,13.70
2023-02-23T08:42:51.353Z,13.71
2023-02-23T08:43:51.360Z,13.68
2023-02-23T08:44:51.319Z,13.79
2023-02-23T08:45:51.528Z,13.75
2023-02-23T08:46:51.311Z,13.81
2023-02-23T08:47:52.413Z,13.86
2023-02-23T08:48:51.400Z,13.83
2023-02-23T08:49:51.271Z,13.92
2023-02-23T08:50:52.298Z,13.97
2023-02-23T08:51:51.270Z,13.99
2023-02-23T08:52:51.214Z,14.05
2023-02-23T08:53:52.317Z,14.10
2023-02-23T08:54:51.203Z,14.00
2023-02-23T08:55:51.270Z,14.04
2023-02-23T08:56:51.187Z,14.14
2023-02-23T08:57:51.195Z,14.08
2023-02-23T08:58:51.185Z,14.26
2023-02-23T08:59:51.222Z,14.23
2023-02-23T09:00:51.166Z,14.14
2023-02-23T09:01:51.152Z,14.12
2023-02-23T09:02:51.126Z,14.15
2023-02-23T09:03:52.177Z,14.22
2023-02-23T09:04:51.117Z,14.22
2023-02-23T09:05:51.182Z,14.23
2023-02-23T09:06:51.130Z,14.25
2023-02-23T09:07:51.066Z,14.17
2023-02-23T09:08:51.073Z,14.15
2023-02-23T09:09:51.054Z,14.26
2023-02-23T09:10:51.094Z,14.40
2023-02-23T09:11:51.012Z,14.33
2023-02-23T09:12:51.034Z,14.45
2023-02-23T09:13:51.009Z,14.47
2023-02-23T09:14:51.051Z,14.45
2023-02-23T09:15:51.052Z,14.62
2023-02-23T09:16:50.973Z,14.69
2023-02-23T09:17:50.952Z,14.69
2023-02-23T09:18:51.019Z,14.79
2023-02-23T09:19:50.954Z,14.72
2023-02-23T09:20:50.973Z,14.72
2023-02-23T09:21:50.978Z,14.72
2023-02-23T09:22:50.889Z,14.81
2023-02-23T09:23:50.878Z,14.82
2023-02-23T09:24:50.909Z,14.88
2023-02-23T09:25:50.871Z,14.99
2023-02-23T09:26:50.865Z,14.92
2023-02-23T09:27:50.879Z,15.02
2023-02-23T09:28:50.827Z,15.06
2023-02-23T09:29:50.878Z,15.09
2023-02-23T09:30:50.894Z,15.10
2023-02-23T09:31:50.947Z,15.17
2023-02-23T09:32:50.792Z,15.17
2023-02-23T09:33:51.831Z,15.22
2023-02-23T09:34:50.756Z,15.29
2023-02-23T09:35:50.815Z,15.43
2023-02-23T09:36:50.771Z,15.42
2023-02-23T09:37:50.751Z,15.47
2023-02-23T09:38:50.798Z,15.46
2023-02-23T09:39:51.737Z,15.49
2023-02-23T09:40:50.690Z,15.40
2023-02-23T09:41:50.770Z,15.37
2023-02-23T09:42:50.672Z,15.09
2023-02-23T09:43:50.670Z,15.07
2023-02-23T09:44:50.805Z,15.09
2023-02-23T09:45:50.675Z,15.22
2023-02-23T09:46:50.696Z,15.27
2023-02-23T09:47:50.654Z,15.28
2023-02-23T09:48:50.608Z,15.10
2023-02-23T09:49:50.706Z,15.06
2023-02-23T09:50:50.615Z,15.09
2023-02-23T09:51:50.603Z,15.14
2023-02-23T09:52:50.567Z,15.14
2023-02-23T09:53:50.917Z,15.06
2023-02-23T09:54:50.547Z,15.03
2023-02-23T09:55:50.541Z,14.97
2023-02-23T09:56:50.574Z,15.06
2023-02-23T09:57:51.520Z,15.24
2023-02-23T09:58:50.530Z,15.28
2023-02-23T09:59:50.479Z,15.36
2023-02-23T10:00:50.683Z,15.49
2023-02-23T10:01:51.576Z,15.44
2023-02-23T10:02:50.459Z,15.54
2023-02-23T10:03:50.469Z,15.52
2023-02-23T10:04:50.659Z,15.54
2023-02-23T10:05:50.428Z,15.57
2023-02-23T10:06:50.428Z,15.58
2023-02-23T10:07:50.409Z,15.70
2023-02-23T10:08:50.473Z,15.77
2023-02-23T10:09:51.375Z,15.79
2023-02-23T10:10:50.383Z,15.84
2023-02-23T10:11:50.360Z,15.77
2023-02-23T10:12:51.200Z,15.84
2023-02-23T10:13:50.366Z,15.83
2023-02-23T10:14:50.318Z,15.59
2023-02-23T10:15:50.356Z,15.59
2023-02-23T10:16:51.314Z,15.55
2023-02-23T10:17:51.324Z,15.61
2023-02-23T10:18:50.358Z,15.52
2023-02-23T10:19:50.307Z,15.58
2023-02-23T10:20:50.269Z,15.43
2023-02-23T10:21:50.313Z,15.43
2023-02-23T10:22:50.321Z,15.52
2023-02-23T10:23:50.254Z,15.61
2023-02-23T10:24:50.253Z,15.67
2023-02-23T10:25:50.202Z,15.73
2023-02-23T10:26:50.210Z,15.79
2023-02-23T10:27:51.224Z,15.84
2023-02-23T10:28:51.180Z,15.84
2023-02-23T10:29:50.193Z,15.61
2023-02-23T10:30:50.267Z,15.57
2023-02-23T10:31:50.246Z,15.61
2023-02-23T10:32:50.145Z,15.64
2023-02-23T10:33:50.111Z,15.51
2023-02-23T10:34:50.098Z,15.54
2023-02-23T10:35:52.423Z,15.47
2023-02-23T10:36:50.141Z,15.58
2023-02-23T10:37:50.073Z,15.52
2023-02-23T10:38:50.667Z,15.58
2023-02-23T10:39:51.075Z,15.64
2023-02-23T10:40:50.240Z,15.76
2023-02-23T10:41:50.058Z,15.72
2023-02-23T10:42:50.007Z,15.79
2023-02-23T10:43:50.019Z,15.83
2023-02-23T10:44:50.024Z,15.75
2023-02-23T10:45:49.987Z,15.83
2023-02-23T10:46:49.971Z,15.91
2023-02-23T10:47:49.984Z,16.02
2023-02-23T10:48:49.975Z,16.09
2023-02-23T10:49:49.924Z,16.13
2023-02-23T10:50:49.963Z,16.12
2023-02-23T10:51:50.924Z,16.08
2023-02-23T10:52:50.992Z,16.13
2023-02-23T10:53:49.948Z,15.98
2023-02-23T10:54:49.908Z,16.02
2023-02-23T10:55:49.906Z,16.05
2023-02-23T10:56:49.866Z,16.02
2023-02-23T10:57:50.875Z,15.97
2023-02-23T10:58:49.833Z,15.94
2023-02-23T10:59:49.847Z,16.02
2023-02-23T11:00:49.812Z,16.10
2023-02-23T11:02:01.966Z,16.12
2023-02-23T11:02:50.819Z,16.20
2023-02-23T11:03:57.730Z,16.20
2023-02-23T11:04:50.830Z,16.20
2023-02-23T11:05:49.793Z,16.20
2023-02-23T11:06:49.733Z,16.35
2023-02-23T11:07:49.764Z,16.38
2023-02-23T11:08:50.709Z,16.36
2023-02-23T11:09:49.739Z,16.16
2023-02-23T11:10:49.708Z,16.17
2023-02-23T11:11:49.742Z,16.12
2023-02-23T11:12:49.689Z,16.10
2023-02-23T11:13:49.695Z,16.08
2023-02-23T11:14:50.705Z,16.20
2023-02-23T11:15:51.173Z,16.20
2023-02-23T11:16:49.658Z,16.20
2023-02-23T11:17:49.655Z,16.33
2023-02-23T11:18:49.673Z,16.23
2023-02-23T11:19:49.616Z,16.32
2023-02-23T11:20:49.608Z,16.41
2023-02-23T11:21:49.624Z,16.47
2023-02-23T11:22:49.591Z,16.35
2023-02-23T11:23:49.602Z,16.42
2023-02-23T11:24:49.590Z,16.32
2023-02-23T11:25:49.639Z,16.29
2023-02-23T11:26:49.536Z,16.16
2023-02-23T11:27:49.686Z,16.28
2023-02-23T11:28:49.556Z,16.20
2023-02-23T11:29:49.535Z,16.46
2023-02-23T11:30:49.485Z,16.39
2023-02-23T11:31:49.752Z,16.43
2023-02-23T11:32:50.503Z,16.46
2023-02-23T11:33:49.474Z,16.50
2023-02-23T11:34:50.427Z,16.33
2023-02-23T11:35:50.422Z,16.36
2023-02-23T11:36:50.431Z,16.17
2023-02-23T11:37:50.457Z,16.09
2023-02-23T11:38:49.394Z,16.20
2023-02-23T11:39:49.433Z,16.16
2023-02-23T11:40:49.353Z,16.32
2023-02-23T11:41:49.378Z,16.42
2023-02-23T11:42:49.403Z,16.28
2023-02-23T11:43:49.334Z,16.32
2023-02-23T11:44:49.377Z,16.47
2023-02-23T11:45:50.391Z,16.51
2023-02-23T11:46:50.387Z,16.42
2023-02-23T11:47:50.294Z,16.31
2023-02-23T11:48:49.288Z,16.43
2023-02-23T11:49:49.279Z,16.50
2023-02-23T11:50:49.272Z,16.56
2023-02-23T11:51:49.305Z,16.60
2023-02-23T11:52:50.253Z,16.64
2023-02-23T11:53:50.216Z,16.66
2023-02-23T11:54:49.242Z,16.79
2023-02-23T11:55:49.204Z,16.46
2023-02-23T11:56:49.212Z,16.46
2023-02-23T11:57:50.193Z,16.54
2023-02-23T11:58:50.183Z,16.64
2023-02-23T11:59:49.172Z,16.68
2023-02-23T12:00:49.188Z,16.72
2023-02-23T12:01:49.169Z,16.76
2023-02-23T12:02:49.209Z,16.79
2023-02-23T12:03:49.145Z,16.75
2023-02-23T12:04:49.204Z,16.66
2023-02-23T12:05:49.094Z,16.72
2023-02-23T12:06:49.107Z,16.75
2023-02-23T12:07:49.088Z,16.84
2023-02-23T12:08:49.090Z,16.83
2023-02-23T12:09:50.100Z,16.61
2023-02-23T12:10:49.088Z,16.56
2023-02-23T12:11:50.029Z,16.66
2023-02-23T12:12:49.021Z,16.58
2023-02-23T12:13:49.061Z,16.66
2023-02-23T12:14:48.983Z,16.72
2023-02-23T12:15:48.981Z,16.75
2023-02-23T12:16:49.005Z,16.79
2023-02-23T12:17:49.145Z,16.78
2023-02-23T12:18:48.960Z,16.83
2023-02-23T12:19:48.954Z,16.66
2023-02-23T12:20:48.912Z,16.60
2023-02-23T12:21:48.967Z,16.64
2023-02-23T12:22:49.937Z,16.65
2023-02-23T12:23:50.031Z,16.69
2023-02-23T12:24:48.891Z,16.74
2023-02-23T12:25:48.937Z,16.75
2023-02-23T12:26:48.887Z,16.83
2023-02-23T12:27:49.858Z,16.83
2023-02-23T12:28:48.835Z,16.91
2023-02-23T12:29:48.822Z,16.94
2023-02-23T12:30:48.885Z,16.99
2023-02-23T12:31:49.021Z,16.94
2023-02-23T12:32:48.823Z,16.86
2023-02-23T12:33:48.784Z,16.94
2023-02-23T12:34:48.837Z,16.81
2023-02-23T12:35:48.786Z,16.78
2023-02-23T12:36:48.752Z,16.74
2023-02-23T12:37:48.766Z,16.71
2023-02-23T12:38:48.765Z,16.76
2023-02-23T12:39:48.745Z,16.87
2023-02-23T12:40:50.483Z,16.79
2023-02-23T12:41:48.720Z,16.72
2023-02-23T12:42:49.673Z,16.60
2023-02-23T12:43:49.704Z,16.61
2023-02-23T12:44:48.655Z,16.83
2023-02-23T12:45:49.700Z,16.84
2023-02-23T12:46:48.650Z,16.84
2023-02-23T12:47:48.643Z,16.79
2023-02-23T12:48:48.631Z,16.84
2023-02-23T12:49:48.642Z,16.78
2023-02-23T12:50:49.590Z,16.87
2023-02-23T12:51:49.605Z,16.89
2023-02-23T12:52:48.568Z,16.79